Time;durP1;ratioP1;P1;durP2;ratioP2;P2;SDS_P1;SDS_P2;PMS_P1;PMS_P2;Temp;Humidity;BMP_temperature;BMP_pressure;BME280_temperature;BME280_humidity;BME280_pressure;Samples;Min_cycle;Max_cycle;Signal;HPM_P1;HPM_P2
2023/10/11 00:01:05;;;;;;;;;;;;;;;18.08;48.46;100965.38;5137173;27;20433;-65
2023/10/11 00:03:34;;;;;;;;;;;;;;;18.08;48.54;100964.53;5136913;27;19931;-66
2023/10/11 00:06:04;;;;;;;;;;;;;;;18.07;48.54;100952.88;5136892;27;20012;-65
2023/10/11 00:08:40;;;;;;;;;;;;;;;18.07;48.63;100957.41;5136722;27;19923;-66
2023/10/11 00:11:09;;;;;;;;;;;;;;;18.05;48.56;100954.84;5136806;27;20015;-66
2023/10/11 00:13:40;;;;;;;;;;;;;;;18.05;48.42;100957.53;5136565;27;19934;-66
2023/10/11 00:16:09;;;;;;;;;;;;;;;18.05;48.42;100956.66;5136917;27;20298;-65
2023/10/11 00:18:39;;;;;;;;;;;;;;;18.03;48.39;100951.38;5136742;27;19975;-66
2023/10/11 00:21:11;;;;;;;;;;;;;;;18.02;48.43;100949.66;5136723;27;19923;-67
2023/10/11 00:23:42;;;;;;;;;;;;;;;18.02;48.40;100946.97;5136571;27;19923;-67
2023/10/11 00:26:10;;;;;;;;;;;;;;;18.02;48.35;100946.97;5136732;27;19950;-67
2023/10/11 00:28:40;;;;;;;;;;;;;;;18.01;48.32;100945.25;5136371;27;20014;-66
2023/10/11 00:31:16;;;;;;;;;;;;;;;17.99;48.41;100941.81;5136465;27;19923;-68
2023/10/11 00:33:46;;;;;;;;;;;;;;;18.00;48.30;100946.25;5136413;27;20439;-67
2023/10/11 00:36:16;;;;;;;;;;;;;;;17.99;48.56;100944.53;5136194;27;20391;-66
2023/10/11 00:38:47;;;;;;;;;;;;;;;17.97;48.35;100944.66;5136100;27;20368;-65
2023/10/11 00:41:18;;;;;;;;;;;;;;;17.98;48.34;100948.22;5136378;27;19966;-67
2023/10/11 00:43:52;;;;;;;;;;;;;;;17.97;48.39;100941.09;5136036;27;20410;-67
2023/10/11 00:46:24;;;;;;;;;;;;;;;17.96;48.22;100944.78;5135996;27;19978;-67
2023/10/11 00:48:53;;;;;;;;;;;;;;;17.95;48.29;100945.72;5135195;27;19959;-67
2023/10/11 00:51:23;;;;;;;;;;;;;;;17.94;48.41;100947.56;5136048;27;19953;-67
2023/10/11 00:53:52;;;;;;;;;;;;;;;17.94;48.13;100944.03;5135881;27;20403;-67
2023/10/11 00:56:21;;;;;;;;;;;;;;;17.93;48.18;100942.31;5135912;27;19929;-67
2023/10/11 00:58:52;;;;;;;;;;;;;;;17.93;48.09;100945.00;5135836;27;19923;-68
2023/10/11 01:01:22;;;;;;;;;;;;;;;17.91;48.34;100945.13;5135765;27;20010;-66
2023/10/11 01:03:51;;;;;;;;;;;;;;;17.91;48.17;100939.72;5135924;27;20048;-66
2023/10/11 01:06:25;;;;;;;;;;;;;;;17.91;48.11;100941.56;5135833;27;20350;-66
2023/10/11 01:08:54;;;;;;;;;;;;;;;17.89;48.08;100938.16;5128561;27;19931;-66
2023/10/11 01:11:22;;;;;;;;;;;;;;;17.89;48.22;100935.44;5114834;28;20407;-66
2023/10/11 01:13:55;;;;;;;;;;;;;;;17.88;48.17;100939.13;5115036;28;20297;-66
2023/10/11 01:16:28;;;;;;;;;;;;;;;17.87;48.09;100932.03;5114795;27;20017;-67
2023/10/11 01:18:56;;;;;;;;;;;;;;;17.86;48.13;100933.00;5115023;28;19946;-67
2023/10/11 01:21:32;;;;;;;;;;;;;;;17.85;48.15;100940.22;5114678;28;19924;-65
2023/10/11 01:24:00;;;;;;;;;;;;;;;17.85;48.08;100939.34;5114802;28;20022;-67
2023/10/11 01:26:30;;;;;;;;;;;;;;;17.84;48.21;100941.19;5114707;28;19984;-67
2023/10/11 01:28:58;;;;;;;;;;;;;;;17.83;48.42;100938.63;5114759;28;20288;-66
2023/10/11 01:31:32;;;;;;;;;;;;;;;17.82;48.13;100945.00;5114516;28;19930;-67
2023/10/11 01:34:01;;;;;;;;;;;;;;;17.82;48.39;100942.31;5114472;28;20396;-66
2023/10/11 01:36:30;;;;;;;;;;;;;;;17.81;48.05;100938.75;5114532;28;19924;-66
2023/10/11 01:39:02;;;;;;;;;;;;;;;17.81;48.14;100941.44;5114457;28;19928;-66
2023/10/11 01:41:31;;;;;;;;;;;;;;;17.80;48.16;100945.13;5114648;28;19968;-66
2023/10/11 01:43:59;;;;;;;;;;;;;;;17.79;48.08;100943.41;5114302;28;19976;-66
2023/10/11 01:46:27;;;;;;;;;;;;;;;17.79;48.07;100945.25;5114479;28;20338;-67
2023/10/11 01:48:56;;;;;;;;;;;;;;;17.78;48.07;100936.31;5114367;28;19976;-66
2023/10/11 01:51:27;;;;;;;;;;;;;;;17.78;48.05;100936.31;5114221;28;20034;-66
2023/10/11 01:53:57;;;;;;;;;;;;;;;17.77;48.31;100931.03;5114179;28;20026;-66
2023/10/11 01:56:25;;;;;;;;;;;;;;;17.77;48.22;100949.94;5114227;28;19924;-66
2023/10/11 01:58:56;;;;;;;;;;;;;;;17.74;48.21;100941.06;5114297;28;19923;-67
2023/10/11 02:01:26;;;;;;;;;;;;;;;17.74;48.14;100941.06;5113029;28;19924;-66
2023/10/11 02:03:58;;;;;;;;;;;;;;;17.73;48.14;100933.97;5114084;28;20380;-66
2023/10/11 02:06:31;;;;;;;;;;;;;;;17.73;48.34;100939.34;5113848;28;19923;-66
2023/10/11 02:09:02;;;;;;;;;;;;;;;17.72;48.26;100937.63;5113935;28;19932;-66
2023/10/11 02:11:31;;;;;;;;;;;;;;;17.73;48.02;100933.09;5113889;28;19928;-66
2023/10/11 02:13:59;;;;;;;;;;;;;;;17.71;48.26;100930.53;5114001;28;20308;-66
2023/10/11 02:16:30;;;;;;;;;;;;;;;17.71;48.11;100930.53;5113732;28;19924;-67
2023/10/11 02:18:59;;;;;;;;;;;;;;;17.70;48.35;100938.75;5113652;28;19924;-67
2023/10/11 02:21:29;;;;;;;;;;;;;;;17.70;48.35;100939.59;5113458;28;19931;-66
2023/10/11 02:23:59;;;;;;;;;;;;;;;17.68;48.20;100946.94;5113600;28;20380;-66
2023/10/11 02:26:34;;;;;;;;;;;;;;;17.68;48.15;100946.94;5113574;28;19930;-66
2023/10/11 02:29:10;;;;;;;;;;;;;;;17.69;48.28;100948.69;5113593;28;19924;-66
2023/10/11 02:31:38;;;;;;;;;;;;;;;17.68;48.13;100949.63;5113199;28;19924;-67
2023/10/11 02:34:12;;;;;;;;;;;;;;;17.66;48.30;100954.31;5113642;28;19924;-66
2023/10/11 02:36:43;;;;;;;;;;;;;;;17.65;48.09;100947.16;5113513;28;19924;-66
2023/10/11 02:39:17;;;;;;;;;;;;;;;17.66;48.27;100951.59;5113513;28;19924;-67
2023/10/11 02:41:55;;;;;;;;;;;;;;;17.65;48.18;100952.56;5113257;28;19923;-66
2023/10/11 02:44:24;;;;;;;;;;;;;;;17.65;48.31;100951.69;5113443;28;19924;-66
2023/10/11 02:46:52;;;;;;;;;;;;;;;17.63;48.31;100951.81;5113289;28;20122;-66
2023/10/11 02:49:21;;;;;;;;;;;;;;;17.62;48.40;100942.00;5113277;28;20052;-65
2023/10/11 02:51:55;;;;;;;;;;;;;;;17.63;48.39;100926.69;5113015;28;19924;-66
2023/10/11 02:54:26;;;;;;;;;;;;;;;17.62;48.25;100925.81;5112971;28;20241;-66
2023/10/11 02:56:57;;;;;;;;;;;;;;;17.61;48.30;100929.50;5113163;28;19969;-66
2023/10/11 02:59:25;;;;;;;;;;;;;;;17.61;48.46;100934.91;5113044;28;19963;-66
2023/10/11 03:02:00;;;;;;;;;;;;;;;17.60;48.59;100933.19;5112849;28;19924;-66
2023/10/11 03:04:29;;;;;;;;;;;;;;;17.61;48.40;100936.75;5112854;28;19924;-66
2023/10/11 03:07:00;;;;;;;;;;;;;;;17.59;48.58;100942.25;5112686;28;19928;-66
2023/10/11 03:09:28;;;;;;;;;;;;;;;17.58;48.62;100940.56;5113043;28;20014;-66
2023/10/11 03:12:06;;;;;;;;;;;;;;;17.58;48.49;100950.47;5112581;28;19931;-66
2023/10/11 03:14:41;;;;;;;;;;;;;;;17.58;48.59;100959.44;5112817;28;19924;-66
2023/10/11 03:17:13;;;;;;;;;;;;;;;17.57;48.48;100971.19;5112671;28;19924;-67
2023/10/11 03:19:43;;;;;;;;;;;;;;;17.57;48.65;100960.41;5112927;28;19928;-67
2023/10/11 03:22:19;;;;;;;;;;;;;;;17.57;48.76;100957.72;5112185;28;21483;-66
2023/10/11 03:24:53;;;;;;;;;;;;;;;17.56;48.78;100947.88;5112942;28;19924;-67
2023/10/11 03:27:24;;;;;;;;;;;;;;;17.56;48.81;100941.63;5112661;28;19928;-66
2023/10/11 03:29:53;;;;;;;;;;;;;;;17.55;48.87;100935.38;5112582;28;19924;-66
2023/10/11 03:32:25;;;;;;;;;;;;;;;17.55;48.80;100938.06;5112747;28;19946;-66
2023/10/11 03:34:55;;;;;;;;;;;;;;;17.55;48.82;100945.31;5112648;28;19946;-65
2023/10/11 03:37:27;;;;;;;;;;;;;;;17.55;48.85;100948.88;5112654;28;19924;-67
2023/10/11 03:39:57;;;;;;;;;;;;;;;17.54;48.60;100949.84;5112495;28;20330;-67
2023/10/11 03:42:59;;;;;;;;;;;;;;;17.54;48.74;100944.44;5112485;28;20034;-67
2023/10/11 03:45:27;;;;;;;;;;;;;;;17.53;48.82;100937.34;5112565;28;20346;-66
2023/10/11 03:47:58;;;;;;;;;;;;;;;17.52;48.90;100946.41;5112362;28;20007;-68
2023/10/11 03:50:33;;;;;;;;;;;;;;;17.53;48.79;100955.38;5112266;28;20429;-67
2023/10/11 03:53:10;;;;;;;;;;;;;;;17.52;48.82;100953.66;5112198;28;19963;-66
2023/10/11 03:55:45;;;;;;;;;;;;;;;17.51;48.61;100955.47;5112615;28;19977;-66
2023/10/11 03:58:32;;;;;;;;;;;;;;;17.50;48.61;100953.78;5112469;28;19928;-67
2023/10/11 04:01:08;;;;;;;;;;;;;;;17.50;48.65;100951.06;5112291;28;19963;-67
2023/10/11 04:03:39;;;;;;;;;;;;;;;17.51;48.73;100951.94;5112213;28;19928;-67
2023/10/11 04:06:14;;;;;;;;;;;;;;;17.49;48.70;100946.66;5112396;28;19923;-67
2023/10/11 04:08:47;;;;;;;;;;;;;;;17.50;48.80;100942.13;5112436;28;19953;-67
2023/10/11 04:11:18;;;;;;;;;;;;;;;17.48;48.77;100936.84;5112261;28;19938;-67
2023/10/11 04:13:49;;;;;;;;;;;;;;;17.49;48.76;100941.28;5112053;28;19924;-67
2023/10/11 04:16:18;;;;;;;;;;;;;;;17.48;48.88;100931.47;5112361;28;19969;-65
2023/10/11 04:18:46;;;;;;;;;;;;;;;17.49;48.65;100935.03;5112049;28;20368;-65
2023/10/11 04:23:56;;;;;;;;;;;;;;;17.48;48.67;100962.97;5110752;28;20010;-66
2023/10/11 04:26:33;;;;;;;;;;;;;;;17.47;48.98;100954.03;5115705;28;19972;-65
2023/10/11 04:29:17;;;;;;;;;;;;;;;17.46;48.79;100957.66;5115742;28;19932;-65
2023/10/11 04:31:55;;;;;;;;;;;;;;;17.46;48.91;100961.22;5115881;28;20011;-66
2023/10/11 04:34:25;;;;;;;;;;;;;;;17.47;49.00;100959.41;5115714;27;20011;-65
2023/10/11 04:36:55;;;;;;;;;;;;;;;17.46;48.84;100955.81;5115463;28;19961;-66
2023/10/11 04:39:33;;;;;;;;;;;;;;;17.45;48.82;100955.94;5115797;28;20002;-65
2023/10/11 04:42:02;;;;;;;;;;;;;;;17.44;49.06;100957.78;5115640;28;20018;-65
2023/10/11 04:44:42;;;;;;;;;;;;;;;17.45;48.87;100955.94;5115448;28;19969;-68
2023/10/11 04:47:10;;;;;;;;;;;;;;;17.44;49.04;100956.94;5115323;28;20273;-65
2023/10/11 04:49:38;;;;;;;;;;;;;;;17.44;49.10;100959.63;5115210;28;19981;-66
2023/10/11 04:52:13;;;;;;;;;;;;;;;17.44;48.78;100965.03;5115099;28;20352;-65
2023/10/11 04:54:53;;;;;;;;;;;;;;;17.43;49.07;100966.88;5115030;28;19976;-65
2023/10/11 04:57:36;;;;;;;;;;;;;;;17.43;49.01;100960.63;5114868;28;19923;-67
2023/10/11 05:00:08;;;;;;;;;;;;;;;17.43;49.07;100961.47;5114871;27;19963;-66
2023/10/11 05:02:38;;;;;;;;;;;;;;;17.42;49.08;100961.59;5114932;28;20396;-65
2023/10/11 05:05:10;;;;;;;;;;;;;;;17.42;48.82;100965.16;5114786;28;19981;-66
2023/10/11 05:07:42;;;;;;;;;;;;;;;17.42;48.98;100969.69;5115040;28;19924;-66
2023/10/11 05:10:30;;;;;;;;;;;;;;;17.41;49.15;100967.97;5115152;28;19974;-66
2023/10/11 05:13:05;;;;;;;;;;;;;;;17.41;49.15;100968.81;5115060;28;19931;-66
2023/10/11 05:15:42;;;;;;;;;;;;;;;17.42;48.98;100967.00;5114821;28;19930;-66
2023/10/11 05:18:18;;;;;;;;;;;;;;;17.41;49.29;100960.75;5114844;28;19969;-66
2023/10/11 05:20:57;;;;;;;;;;;;;;;17.41;49.16;100965.28;5114415;28;19931;-66
2023/10/11 05:23:52;;;;;;;;;;;;;;;17.41;49.06;100970.66;5114622;28;20006;-67
2023/10/11 05:26:36;;;;;;;;;;;;;;;17.40;49.24;100986.00;5114428;28;19975;-67
2023/10/11 05:29:09;;;;;;;;;;;;;;;17.41;49.24;100986.84;5114481;27;20072;-67
2023/10/11 05:32:00;;;;;;;;;;;;;;;17.40;49.44;100991.38;5114684;28;19969;-67
2023/10/11 05:34:46;;;;;;;;;;;;;;;17.41;49.39;100997.63;5113913;28;20030;-67
2023/10/11 05:51:07;;;;;;;;;;;;;;;17.40;49.37;100990.53;5122520;27;19931;-64
2023/10/11 05:53:35;;;;;;;;;;;;;;;17.42;49.58;100988.56;5122320;27;19930;-64
2023/10/11 05:56:04;;;;;;;;;;;;;;;17.41;49.80;100994.94;5124054;27;19923;-65
2023/10/11 05:58:34;;;;;;;;;;;;;;;17.40;49.67;100996.78;5124470;27;19924;-64
2023/10/11 06:01:06;;;;;;;;;;;;;;;17.41;49.80;101003.03;5121230;27;19927;-65
2023/10/11 06:03:36;;;;;;;;;;;;;;;17.40;49.80;100995.91;5122344;27;19985;-63
2023/10/11 06:06:10;;;;;;;;;;;;;;;17.40;49.63;100995.91;5123742;27;19924;-64
2023/10/11 06:08:39;;;;;;;;;;;;;;;17.41;49.63;101003.03;5119854;27;19977;-64
2023/10/11 06:11:08;;;;;;;;;;;;;;;17.40;49.88;101007.56;5128078;27;19950;-65
2023/10/11 06:13:37;;;;;;;;;;;;;;;17.40;49.62;101004.88;5134023;27;20279;-64
2023/10/11 06:16:07;;;;;;;;;;;;;;;17.41;49.89;101000.34;5129214;27;20377;-65
2023/10/11 06:18:39;;;;;;;;;;;;;;;17.41;49.63;101003.88;5113519;28;20380;-65
2023/10/11 06:21:18;;;;;;;;;;;;;;;17.40;49.69;101007.56;5113350;28;19924;-66
2023/10/11 06:23:48;;;;;;;;;;;;;;;17.41;49.92;101008.41;5127779;27;20284;-68
2023/10/11 06:29:07;;;;;;;;;;;;;;;17.41;50.03;101013.81;5114699;28;19924;-64
2023/10/11 06:31:39;;;;;;;;;;;;;;;17.43;50.00;101009.16;5113186;28;19931;-63
2023/10/11 06:34:17;;;;;;;;;;;;;;;17.42;50.00;101015.53;5113502;28;19928;-65
2023/10/11 06:36:48;;;;;;;;;;;;;;;17.42;49.95;101012.84;5113173;28;20296;-64
2023/10/11 06:40:07;;;;;;;;;;;;;;;17.43;50.04;101017.25;5113063;28;19931;-63
2023/10/11 06:42:23;;;;;;;;;;;;;;;17.41;50.06;101020.06;5092336;28;19924;-63
2023/10/11 06:44:57;;;;;;;;;;;;;;;17.42;50.11;101012.84;5104698;28;20050;-65
2023/10/11 06:47:26;;;;;;;;;;;;;;;17.43;49.81;101025.34;5112307;28;19923;-65
2023/10/11 06:49:56;;;;;;;;;;;;;;;17.43;50.18;101026.19;5112946;28;19934;-62
2023/10/11 06:52:30;;;;;;;;;;;;;;;17.44;50.21;101024.34;5114185;27;19931;-65
2023/10/11 06:55:13;;;;;;;;;;;;;;;17.44;50.24;101021.66;5120563;27;20026;-65
2023/10/11 06:57:45;;;;;;;;;;;;;;;17.44;50.24;101013.56;5112990;28;19928;-65
2023/10/11 07:00:23;;;;;;;;;;;;;;;17.44;50.28;101016.25;5111757;28;20318;-65
2023/10/11 07:02:52;;;;;;;;;;;;;;;17.46;50.26;101011.59;5112205;27;19930;-65
2023/10/11 07:05:25;;;;;;;;;;;;;;;17.47;50.34;101018.75;5112435;28;19935;-65
2023/10/11 07:07:55;;;;;;;;;;;;;;;17.48;50.31;101019.59;5112435;28;20395;-65
2023/10/11 07:10:31;;;;;;;;;;;;;;;17.49;50.21;101022.19;5112698;28;19968;-64
2023/10/11 07:13:05;;;;;;;;;;;;;;;17.50;50.23;101023.91;5112776;28;19977;-64
2023/10/11 07:15:38;;;;;;;;;;;;;;;17.51;50.04;101019.38;5112340;28;19923;-65
2023/10/11 07:18:11;;;;;;;;;;;;;;;17.52;50.30;101027.34;5112446;28;20047;-66
2023/10/11 07:20:48;;;;;;;;;;;;;;;17.52;50.05;101027.34;5112359;28;19924;-65
2023/10/11 07:23:21;;;;;;;;;;;;;;;17.53;50.07;101028.19;5112511;28;19981;-65
2023/10/11 07:25:59;;;;;;;;;;;;;;;17.54;50.49;101021.81;5112284;28;20327;-66
2023/10/11 07:28:35;;;;;;;;;;;;;;;17.55;50.20;101021.69;5112326;28;19923;-66
2023/10/11 07:31:04;;;;;;;;;;;;;;;17.55;50.32;101027.09;5112278;28;20379;-66
2023/10/11 07:33:36;;;;;;;;;;;;;;;17.56;50.29;101028.81;5112406;28;19947;-66
2023/10/11 07:36:11;;;;;;;;;;;;;;;17.56;50.39;101028.81;5112057;28;19924;-64
2023/10/11 07:38:43;;;;;;;;;;;;;;;17.57;50.39;101033.25;5112012;28;19935;-65
2023/10/11 07:41:18;;;;;;;;;;;;;;;17.58;50.22;101031.41;5111291;28;20413;-64
2023/10/11 07:43:46;;;;;;;;;;;;;;;17.57;50.18;101025.16;5112305;28;19947;-65
2023/10/11 07:46:14;;;;;;;;;;;;;;;17.58;50.46;101024.16;5112432;28;19977;-65
2023/10/11 07:48:43;;;;;;;;;;;;;;;17.59;50.58;101025.88;5112323;28;20340;-65
2023/10/11 07:51:15;;;;;;;;;;;;;;;17.60;50.44;101022.22;5111995;28;19923;-66
2023/10/11 07:53:44;;;;;;;;;;;;;;;17.61;50.43;101023.94;5112414;28;20023;-66
2023/10/11 07:56:15;;;;;;;;;;;;;;;17.62;50.57;101038.28;5111939;28;19928;-65
2023/10/11 07:58:46;;;;;;;;;;;;;;;17.61;50.42;101026.63;5114547;28;19930;-66
2023/10/11 08:01:25;;;;;;;;;;;;;;;17.62;50.57;101027.47;5116125;28;19924;-65
2023/10/11 08:03:54;;;;;;;;;;;;;;;17.63;50.49;101030.06;5115802;28;19924;-65
2023/10/11 08:06:25;;;;;;;;;;;;;;;17.64;50.59;101026.38;5116084;28;19971;-65
2023/10/11 08:08:59;;;;;;;;;;;;;;;17.64;50.57;101026.38;5116219;28;19924;-65
2023/10/11 08:11:28;;;;;;;;;;;;;;;17.65;50.44;101025.41;5115870;28;19969;-65
2023/10/11 08:14:00;;;;;;;;;;;;;;;17.67;50.82;101026.16;5115893;28;19928;-65
2023/10/11 08:16:33;;;;;;;;;;;;;;;17.67;50.56;101020.75;5115544;28;20348;-66
2023/10/11 08:19:01;;;;;;;;;;;;;;;17.69;50.40;101021.53;5116136;28;19931;-65
2023/10/11 08:21:30;;;;;;;;;;;;;;;17.69;50.45;101026.03;5115712;28;19950;-66
2023/10/11 08:23:59;;;;;;;;;;;;;;;17.70;50.65;101025.94;5115911;28;20355;-65
2023/10/11 08:26:32;;;;;;;;;;;;;;;17.71;50.35;101027.66;5115798;28;19946;-66
2023/10/11 08:29:14;;;;;;;;;;;;;;;17.72;50.41;101026.69;5115652;28;20358;-66
2023/10/11 08:31:44;;;;;;;;;;;;;;;17.73;50.39;101031.09;5115938;28;20015;-66
2023/10/11 08:34:14;;;;;;;;;;;;;;;17.73;50.37;101023.00;5115634;28;19931;-66
2023/10/11 08:36:44;;;;;;;;;;;;;;;17.74;50.40;101022.00;5115278;28;20038;-66
2023/10/11 08:39:13;;;;;;;;;;;;;;;17.77;50.70;101025.47;5115329;28;20387;-66
2023/10/11 08:41:43;;;;;;;;;;;;;;;17.77;50.68;101030.88;5115479;28;19931;-65
2023/10/11 08:44:20;;;;;;;;;;;;;;;17.79;50.49;101034.31;5115429;28;19924;-65
2023/10/11 08:46:49;;;;;;;;;;;;;;;17.80;50.67;101025.22;5115341;28;19963;-64
2023/10/11 08:49:18;;;;;;;;;;;;;;;17.81;50.60;101030.50;5115222;28;20333;-65
2023/10/11 08:51:49;;;;;;;;;;;;;;;17.85;50.35;101028.41;5115150;28;20066;-65
2023/10/11 08:54:25;;;;;;;;;;;;;;;17.86;50.32;101024.75;5115293;28;20381;-64
2023/10/11 08:56:54;;;;;;;;;;;;;;;17.88;50.39;101026.34;5115097;28;19924;-65
2023/10/11 08:59:25;;;;;;;;;;;;;;;17.91;50.42;101014.44;5115091;28;19924;-64
2023/10/11 09:01:53;;;;;;;;;;;;;;;17.93;50.41;101020.56;5114964;28;20381;-64
2023/10/11 09:04:26;;;;;;;;;;;;;;;17.95;50.27;101021.31;5114760;28;19924;-65
2023/10/11 09:06:57;;;;;;;;;;;;;;;17.97;50.11;101022.06;5115379;28;19993;-64
2023/10/11 09:09:39;;;;;;;;;;;;;;;17.99;50.03;101010.16;5114423;28;19924;-64
2023/10/11 09:12:27;;;;;;;;;;;;;;;18.04;50.06;101012.47;5114969;28;19924;-65
2023/10/11 09:14:58;;;;;;;;;;;;;;;18.06;49.92;101010.53;5114548;28;19946;-65
2023/10/11 09:17:27;;;;;;;;;;;;;;;18.10;49.80;101017.41;5114642;28;19948;-64
2023/10/11 09:19:58;;;;;;;;;;;;;;;18.14;50.12;101015.31;5114711;28;19999;-65
2023/10/11 09:22:28;;;;;;;;;;;;;;;18.15;50.27;101015.22;5114607;28;20019;-65
2023/10/11 09:25:21;;;;;;;;;;;;;;;18.18;49.93;101009.56;5114523;28;19924;-65
2023/10/11 09:27:50;;;;;;;;;;;;;;;18.20;50.02;101013.00;5114882;28;20065;-65
2023/10/11 09:30:20;;;;;;;;;;;;;;;18.23;50.21;101014.56;5114787;28;19923;-65
2023/10/11 09:32:52;;;;;;;;;;;;;;;18.25;50.29;101016.19;5114544;28;20023;-65
2023/10/11 09:35:27;;;;;;;;;;;;;;;18.28;50.21;101015.94;5114402;28;19931;-65
2023/10/11 09:37:57;;;;;;;;;;;;;;;18.31;50.36;101009.41;5114250;28;19923;-65
2023/10/11 09:40:28;;;;;;;;;;;;;;;18.34;50.21;101013.75;5114448;28;19924;-64
2023/10/11 09:42:57;;;;;;;;;;;;;;;18.36;50.63;101012.63;5114440;28;19923;-65
2023/10/11 09:45:29;;;;;;;;;;;;;;;18.40;50.76;101015.94;5114218;28;19924;-65
2023/10/11 09:47:58;;;;;;;;;;;;;;;18.44;50.67;101012.00;5114132;28;19949;-66
2023/10/11 09:50:26;;;;;;;;;;;;;;;18.47;50.78;101009.91;5113997;28;20388;-66
2023/10/11 09:52:56;;;;;;;;;;;;;;;18.50;50.60;101000.69;5114228;28;19975;-65
2023/10/11 09:55:31;;;;;;;;;;;;;;;18.53;50.63;101005.88;5113753;28;20399;-66
2023/10/11 09:58:05;;;;;;;;;;;;;;;18.57;50.89;101010.88;5113994;28;19924;-65
2023/10/11 10:00:40;;;;;;;;;;;;;;;18.61;50.62;101006.06;5114030;28;19967;-65
2023/10/11 10:03:13;;;;;;;;;;;;;;;18.65;50.88;101002.19;5113783;28;19969;-65
2023/10/11 10:06:00;;;;;;;;;;;;;;;18.69;50.97;101000.94;5114049;28;19923;-65
2023/10/11 10:08:29;;;;;;;;;;;;;;;18.74;50.78;101000.56;5113789;28;20022;-66
2023/10/11 10:11:02;;;;;;;;;;;;;;;18.78;51.05;100997.47;5113823;28;19985;-66
2023/10/11 10:13:31;;;;;;;;;;;;;;;18.83;50.79;100991.69;5113490;28;19924;-66
2023/10/11 10:15:59;;;;;;;;;;;;;;;18.88;51.12;100993.03;5113617;28;19928;-66
2023/10/11 10:18:28;;;;;;;;;;;;;;;18.92;51.13;100992.78;5113628;28;19923;-66
2023/10/11 10:21:01;;;;;;;;;;;;;;;18.97;51.23;100979.72;5112847;28;20027;-66
2023/10/11 10:23:40;;;;;;;;;;;;;;;19.02;51.42;100980.22;5113189;28;20388;-66
2023/10/11 10:26:43;;;;;;;;;;;;;;;19.07;51.33;100983.38;5113240;28;19924;-66
2023/10/11 10:29:12;;;;;;;;;;;;;;;19.14;51.30;100987.28;5113533;28;20022;-66
2023/10/11 10:32:07;;;;;;;;;;;;;;;19.19;51.13;100979.63;5113252;28;19966;-66
2023/10/11 10:34:41;;;;;;;;;;;;;;;19.27;51.38;100969.00;5077065;28;19947;-65
2023/10/11 10:37:30;;;;;;;;;;;;;;;19.33;51.10;100973.91;5113353;28;19924;-65
2023/10/11 10:40:24;;;;;;;;;;;;;;;19.40;50.93;100966.13;5113024;28;20446;-66
2023/10/11 10:43:14;;;;;;;;;;;;;;;19.47;51.07;100952.91;5112910;28;19923;-66
2023/10/11 10:45:44;;;;;;;;;;;;;;;19.54;50.88;100957.69;5113113;28;20324;-66
2023/10/11 10:48:13;;;;;;;;;;;;;;;19.61;51.06;100958.03;5112977;28;19924;-65
2023/10/11 10:50:48;;;;;;;;;;;;;;;19.67;51.07;100952.06;5112915;28;19974;-66
2023/10/11 10:53:15;;;;;;;;;;;;;;;19.72;50.78;100947.13;5112659;28;19923;-66
2023/10/11 10:55:44;;;;;;;;;;;;;;;19.80;50.79;100941.06;5113038;28;19930;-65
2023/10/11 10:58:18;;;;;;;;;;;;;;;19.86;51.02;100941.34;5112916;28;19935;-66
2023/10/11 11:00:52;;;;;;;;;;;;;;;19.93;50.82;100939.81;5112978;28;19928;-66
2023/10/11 11:03:20;;;;;;;;;;;;;;;19.99;50.60;100933.88;5112772;28;20291;-66
2023/10/11 11:05:56;;;;;;;;;;;;;;;20.07;50.74;100930.47;5112617;28;19924;-66
2023/10/11 11:08:27;;;;;;;;;;;;;;;20.15;50.71;100924.38;5112854;28;19928;-66
2023/10/11 11:11:00;;;;;;;;;;;;;;;20.20;50.51;100928.38;5112753;28;19928;-66
2023/10/11 11:13:29;;;;;;;;;;;;;;;20.27;50.63;100926.00;5112590;28;19931;-66
2023/10/11 11:15:58;;;;;;;;;;;;;;;20.35;50.73;100917.16;5112559;28;20065;-66
2023/10/11 11:18:31;;;;;;;;;;;;;;;20.41;50.60;100922.88;5111947;28;20291;-66
2023/10/11 11:21:03;;;;;;;;;;;;;;;20.49;50.48;100906.81;5112387;28;20014;-66
2023/10/11 11:23:33;;;;;;;;;;;;;;;20.56;50.37;100913.41;5112392;28;19980;-65
2023/10/11 11:26:04;;;;;;;;;;;;;;;20.64;50.08;100914.53;5112494;28;20034;-65
2023/10/11 11:28:39;;;;;;;;;;;;;;;20.70;50.19;100908.53;5112391;28;19924;-65
2023/10/11 11:31:10;;;;;;;;;;;;;;;20.78;50.09;100901.41;5112299;28;19923;-65
2023/10/11 11:33:47;;;;;;;;;;;;;;;20.86;49.85;100903.41;5112224;28;19924;-66
2023/10/11 11:36:30;;;;;;;;;;;;;;;20.94;49.74;100884.59;5112221;28;20676;-66
2023/10/11 11:39:17;;;;;;;;;;;;;;;21.03;49.51;100882.84;5112277;28;19931;-66
2023/10/11 11:41:47;;;;;;;;;;;;;;;21.11;49.53;100878.41;5112494;28;20038;-66
2023/10/11 11:44:20;;;;;;;;;;;;;;;21.20;49.48;100873.13;5112378;28;19928;-66
2023/10/11 11:46:51;;;;;;;;;;;;;;;21.28;49.37;100876.00;5112283;28;19969;-65
2023/10/11 11:49:21;;;;;;;;;;;;;;;21.35;49.24;100872.56;5112152;28;20014;-66
2023/10/11 11:51:51;;;;;;;;;;;;;;;21.44;49.26;100865.38;5111850;28;19923;-66
2023/10/11 11:54:19;;;;;;;;;;;;;;;21.51;49.22;100871.91;5112125;28;19927;-66
2023/10/11 11:56:48;;;;;;;;;;;;;;;21.59;49.18;100869.31;5112200;28;19923;-65
2023/10/11 11:59:18;;;;;;;;;;;;;;;21.64;49.17;100867.03;5112164;28;20333;-67
2023/10/11 12:01:49;;;;;;;;;;;;;;;21.71;49.15;100868.16;5111943;28;19934;-66
2023/10/11 12:04:23;;;;;;;;;;;;;;;21.80;49.13;100868.22;5111668;28;20431;-65
2023/10/11 12:06:51;;;;;;;;;;;;;;;21.88;49.03;100862.91;5111938;28;20431;-66
2023/10/11 12:09:21;;;;;;;;;;;;;;;21.96;48.90;100849.44;5112087;28;19930;-66
2023/10/11 12:11:53;;;;;;;;;;;;;;;22.03;48.93;100860.56;5112134;28;19928;-66
2023/10/11 12:14:23;;;;;;;;;;;;;;;22.09;48.69;100849.09;5111582;28;19999;-65
2023/10/11 12:16:51;;;;;;;;;;;;;;;22.15;48.91;100849.34;5111562;28;19927;-66
2023/10/11 12:19:20;;;;;;;;;;;;;;;22.20;48.67;100846.19;5111742;28;19949;-65
2023/10/11 12:21:48;;;;;;;;;;;;;;;22.25;48.72;100847.44;5071323;28;19924;-66
2023/10/11 12:24:21;;;;;;;;;;;;;;;22.30;48.58;100846.13;5071277;28;19939;-67
2023/10/11 12:26:59;;;;;;;;;;;;;;;22.35;48.70;100843.78;5071100;28;19924;-67
2023/10/11 12:29:27;;;;;;;;;;;;;;;22.37;48.64;100842.63;5070874;28;20019;-67
2023/10/11 12:31:56;;;;;;;;;;;;;;;22.39;48.76;100837.03;5071454;28;19925;-67
2023/10/11 12:34:25;;;;;;;;;;;;;;;22.46;48.56;100824.53;5071307;28;19932;-67
2023/10/11 12:36:54;;;;;;;;;;;;;;;22.51;48.41;100822.22;5071292;28;19928;-67
2023/10/11 12:39:24;;;;;;;;;;;;;;;22.56;48.29;100820.72;5071254;28;20011;-67
2023/10/11 12:41:54;;;;;;;;;;;;;;;22.61;48.42;100825.72;5071142;28;19924;-67
2023/10/11 12:44:22;;;;;;;;;;;;;;;22.63;48.55;100818.25;5071321;28;20015;-65
2023/10/11 12:46:51;;;;;;;;;;;;;;;22.68;48.43;100818.66;5074193;28;19976;-65
2023/10/11 12:49:20;;;;;;;;;;;;;;;22.74;48.45;100812.56;5074719;28;19932;-66
2023/10/11 12:51:50;;;;;;;;;;;;;;;22.77;48.38;100817.66;5074596;28;19924;-66
2023/10/11 12:54:19;;;;;;;;;;;;;;;22.82;48.39;100804.47;5074343;28;19925;-65
2023/10/11 12:56:48;;;;;;;;;;;;;;;22.87;48.45;100795.00;5074200;28;19928;-67
2023/10/11 12:59:19;;;;;;;;;;;;;;;22.90;48.29;100795.56;5074475;28;20007;-67
2023/10/11 13:01:52;;;;;;;;;;;;;;;22.96;48.42;100789.47;5074562;28;19928;-67
2023/10/11 13:04:27;;;;;;;;;;;;;;;23.01;48.32;100794.44;5074181;28;19987;-67
2023/10/11 13:06:59;;;;;;;;;;;;;;;23.06;48.27;100783.91;5074353;28;19972;-67
2023/10/11 13:09:28;;;;;;;;;;;;;;;23.11;48.37;100781.59;5074452;28;19925;-66
2023/10/11 13:11:57;;;;;;;;;;;;;;;23.15;48.35;100782.94;5074300;28;20376;-67
2023/10/11 13:14:26;;;;;;;;;;;;;;;23.17;48.47;100783.69;5074338;28;20340;-67
2023/10/11 13:16:58;;;;;;;;;;;;;;;23.20;48.37;100782.50;5074201;28;19935;-67
2023/10/11 13:19:27;;;;;;;;;;;;;;;23.23;48.39;100780.28;5074814;28;19930;-67
2023/10/11 13:21:56;;;;;;;;;;;;;;;23.27;48.41;100778.13;5114486;28;19923;-67